createdAt,value
2019-04-21T00:00:25.997Z,100596.03
2019-04-21T00:02:58.896Z,100590.84
2019-04-21T00:05:49.924Z,100592.06
2019-04-21T00:08:27.258Z,100585.09
2019-04-21T00:10:47.971Z,100587.26
2019-04-21T00:13:12.354Z,100585.09
2019-04-21T00:15:38.690Z,100586.39
2019-04-21T00:18:21.202Z,100583.42
2019-04-21T00:20:56.207Z,100580.80
2019-04-21T00:23:42.102Z,100577.34
2019-04-21T00:26:03.035Z,100578.18
2019-04-21T00:28:52.813Z,100578.21
2019-04-21T00:31:12.605Z,100581.80
2019-04-21T00:33:32.451Z,100581.83
2019-04-21T00:36:05.612Z,100579.66
2019-04-21T00:39:03.128Z,100575.27
2019-04-21T00:41:25.104Z,100575.66
2019-04-21T00:43:44.779Z,100572.52
2019-04-21T00:46:11.972Z,100576.97
2019-04-21T00:48:54.030Z,100577.03
2019-04-21T00:51:41.998Z,100575.37
2019-04-21T00:54:05.759Z,100576.27
2019-04-21T00:56:34.359Z,100583.36
2019-04-21T00:59:05.725Z,100587.55
2019-04-21T01:01:31.235Z,100577.74
2019-04-21T01:04:04.433Z,100581.41
2019-04-21T01:06:42.127Z,100582.38
2019-04-21T01:09:09.337Z,100581.47
2019-04-21T01:11:47.355Z,100576.14
2019-04-21T01:14:12.054Z,100577.47
2019-04-21T01:16:45.892Z,100576.64
2019-04-21T01:19:13.945Z,100575.72
2019-04-21T01:21:24.764Z,100575.24
2019-04-21T01:23:55.739Z,100573.59
2019-04-21T01:26:40.828Z,100572.34
2019-04-21T01:29:14.461Z,100571.15
2019-04-21T01:31:48.493Z,100562.84
2019-04-21T01:34:20.530Z,100562.81
2019-04-21T01:36:51.442Z,100566.69
2019-04-21T01:39:27.197Z,100560.61
2019-04-21T01:41:57.595Z,100570.28
2019-04-21T01:44:34.436Z,100564.59
2019-04-21T01:46:56.372Z,100569.87
2019-04-21T01:49:21.883Z,100565.16
2019-04-21T01:52:10.818Z,100566.49
2019-04-21T01:54:48.242Z,100557.48
2019-04-21T01:57:22.915Z,100550.94
2019-04-21T01:59:50.258Z,100556.15
2019-04-21T02:02:32.544Z,100557.06
2019-04-21T02:05:03.187Z,100555.76
2019-04-21T02:07:34.521Z,100556.23
2019-04-21T02:10:05.218Z,100550.59
2019-04-21T02:12:33.394Z,100550.70
2019-04-21T02:15:11.493Z,100544.19
2019-04-21T02:17:35.710Z,100550.83
2019-04-21T02:20:00.584Z,100542.83
2019-04-21T02:22:57.693Z,100539.02
2019-04-21T02:25:28.118Z,100543.38
2019-04-21T02:27:43.767Z,100539.08
2019-04-21T02:30:24.769Z,100536.94
2019-04-21T02:35:33.399Z,100538.70
2019-04-21T02:40:30.044Z,100532.29
2019-04-21T02:45:29.767Z,100546.70
2019-04-21T02:50:33.999Z,100541.62
2019-04-21T02:53:05.509Z,100549.89
2019-04-21T02:55:30.429Z,100543.79
2019-04-21T02:58:06.205Z,100539.47
2019-04-21T03:00:57.220Z,100541.20
2019-04-21T03:06:16.808Z,100541.20
2019-04-21T03:08:54.380Z,100538.16
2019-04-21T03:11:11.941Z,100526.02
2019-04-21T03:16:22.929Z,100534.30
2019-04-21T03:18:57.150Z,100533.05
2019-04-21T03:21:20.721Z,100526.08
2019-04-21T03:23:54.910Z,100529.19
2019-04-21T03:28:54.515Z,100536.19
2019-04-21T03:37:00.599Z,100534.47
2019-04-21T03:38:58.443Z,100531.01
2019-04-21T03:46:47.967Z,100527.05
2019-04-21T03:49:11.941Z,100526.08
2019-04-21T03:59:03.820Z,100519.18
2019-04-21T04:04:53.019Z,100516.70
2019-04-21T04:07:44.036Z,100515.94
2019-04-21T04:12:38.095Z,100514.31
2019-04-21T04:15:24.398Z,100517.20
2019-04-21T04:17:32.944Z,100517.02
2019-04-21T04:20:16.398Z,100519.45
2019-04-21T04:25:15.538Z,100518.53
2019-04-21T04:30:31.299Z,100518.05
2019-04-21T04:32:56.645Z,100521.91
2019-04-21T04:38:08.624Z,100522.25
2019-04-21T04:45:53.670Z,100525.95
2019-04-21T04:48:20.212Z,100522.94
2019-04-21T04:50:53.190Z,100522.64
2019-04-21T04:53:31.008Z,100522.02
2019-04-21T04:55:58.924Z,100523.64
2019-04-21T04:58:29.761Z,100528.81
2019-04-21T05:01:06.171Z,100521.97
2019-04-21T05:03:44.520Z,100517.53
2019-04-21T05:09:04.208Z,100517.13
2019-04-21T05:14:02.886Z,100517.58
2019-04-21T05:21:40.539Z,100525.79
2019-04-21T05:23:52.519Z,100517.75
2019-04-21T05:26:14.326Z,100513.94
2019-04-21T05:28:49.778Z,100514.58
2019-04-21T05:32:04.614Z,100502.28
2019-04-21T05:34:31.921Z,100506.28
2019-04-21T05:37:25.746Z,100505.20
2019-04-21T05:40:03.122Z,100504.55
2019-04-21T05:42:36.781Z,100502.69
2019-04-21T05:45:19.551Z,100506.64
2019-04-21T05:48:06.072Z,100511.75
2019-04-21T05:50:26.507Z,100505.45
2019-04-21T05:52:55.940Z,100506.59
2019-04-21T05:55:40.604Z,100507.98
2019-04-21T05:58:02.680Z,100505.67
2019-04-21T06:03:17.615Z,100499.16
2019-04-21T06:05:53.315Z,100497.20
2019-04-21T06:08:13.240Z,100493.19
2019-04-21T06:13:22.198Z,100486.79
2019-04-21T06:15:50.292Z,100489.94
2019-04-21T06:18:20.105Z,100483.06
2019-04-21T06:20:48.773Z,100481.30
2019-04-21T06:23:20.339Z,100480.00
2019-04-21T06:26:18.023Z,100481.60
2019-04-21T06:28:28.729Z,100474.29
2019-04-21T06:31:05.472Z,100477.39
2019-04-21T06:33:32.193Z,100482.95
2019-04-21T06:39:01.945Z,100475.30
2019-04-21T06:41:27.820Z,100473.47
2019-04-21T06:46:33.433Z,100472.58
2019-04-21T06:51:27.452Z,100470.44
2019-04-21T06:56:36.332Z,100471.42
2019-04-21T06:59:01.434Z,100473.41
2019-04-21T07:01:36.363Z,100464.06
2019-04-21T07:04:13.194Z,100466.87
2019-04-21T07:06:35.594Z,100470.59
2019-04-21T07:09:15.975Z,100473.11
2019-04-21T07:11:36.812Z,100474.37
2019-04-21T07:14:27.268Z,100470.95
2019-04-21T07:16:48.067Z,100466.05
2019-04-21T07:19:21.832Z,100462.72
2019-04-21T07:21:49.315Z,100465.49
2019-04-21T07:24:21.726Z,100457.77
2019-04-21T07:26:51.575Z,100445.75
2019-04-21T07:29:25.878Z,100451.30
2019-04-21T07:34:32.235Z,100445.52
2019-04-21T07:36:54.905Z,100440.16
2019-04-21T07:39:16.846Z,100439.11
2019-04-21T07:41:49.663Z,100435.06
2019-04-21T07:44:24.361Z,100432.03
2019-04-21T07:46:53.357Z,100430.93
2019-04-21T07:49:46.615Z,100428.25
2019-04-21T07:52:33.514Z,100423.22
2019-04-21T07:55:06.242Z,100425.88
2019-04-21T07:57:27.693Z,100426.47
2019-04-21T08:02:29.377Z,100415.53
2019-04-21T08:05:11.001Z,100413.97
2019-04-21T08:07:41.759Z,100414.79
2019-04-21T08:10:04.273Z,100416.08
2019-04-21T08:12:30.502Z,100415.54
2019-04-21T08:15:15.746Z,100410.41
2019-04-21T08:17:36.623Z,100404.38
2019-04-21T08:20:09.222Z,100405.28
2019-04-21T08:22:46.850Z,100404.06
2019-04-21T08:25:13.871Z,100395.03
2019-04-21T08:27:47.757Z,100391.94
2019-04-21T08:30:11.559Z,100390.25
2019-04-21T08:32:51.531Z,100387.88
2019-04-21T08:37:50.964Z,100381.41
2019-04-21T08:40:28.246Z,100378.66
2019-04-21T08:42:50.801Z,100377.55
2019-04-21T08:47:52.555Z,100373.02
2019-04-21T08:50:27.960Z,100370.41
2019-04-21T08:55:54.292Z,100366.36
2019-04-21T08:58:44.633Z,100354.83
2019-04-21T09:01:24.197Z,100356.98
2019-04-21T09:04:15.833Z,100359.52
2019-04-21T09:06:59.178Z,100354.41
2019-04-21T09:09:21.015Z,100354.42
2019-04-21T09:11:49.875Z,100353.83
2019-04-21T09:14:21.096Z,100340.67
2019-04-21T09:16:47.505Z,100345.13
2019-04-21T09:19:20.296Z,100340.77
2019-04-21T09:21:50.498Z,100335.13
2019-04-21T09:24:24.190Z,100333.13
2019-04-21T09:26:55.667Z,100335.47
2019-04-21T09:29:17.445Z,100329.61
2019-04-21T09:31:41.301Z,100330.95
2019-04-21T09:34:08.944Z,100324.70
2019-04-21T09:36:45.952Z,100324.75
2019-04-21T09:39:18.061Z,100308.80
2019-04-21T09:41:44.938Z,100305.36
2019-04-21T09:44:22.056Z,100308.52
2019-04-21T09:46:50.582Z,100302.09
2019-04-21T09:49:22.556Z,100301.12
2019-04-21T09:51:48.417Z,100293.42
2019-04-21T09:54:24.821Z,100288.59
2019-04-21T09:56:55.999Z,100282.73
2019-04-21T09:59:28.087Z,100271.23
2019-04-21T10:02:00.238Z,100275.08
2019-04-21T10:04:23.203Z,100266.67
2019-04-21T10:06:52.684Z,100258.48
2019-04-21T10:09:22.265Z,100259.03
2019-04-21T10:11:52.715Z,100252.00
2019-04-21T10:14:22.279Z,100254.73
2019-04-21T10:17:00.329Z,100249.08
2019-04-21T10:19:39.779Z,100244.91
2019-04-21T10:22:10.582Z,100242.06
2019-04-21T10:24:40.565Z,100241.77
2019-04-21T10:27:12.739Z,100248.20
2019-04-21T10:29:44.586Z,100230.45
2019-04-21T10:32:13.409Z,100226.95
2019-04-21T10:34:43.361Z,100233.42
2019-04-21T10:37:13.354Z,100221.98
2019-04-21T10:39:42.917Z,100214.31
2019-04-21T10:42:13.187Z,100211.27
2019-04-21T10:44:43.219Z,100207.73
2019-04-21T10:47:14.363Z,100205.17
2019-04-21T10:49:44.805Z,100205.29
2019-04-21T10:52:22.884Z,100209.26
2019-04-21T10:55:11.273Z,100201.27
2019-04-21T10:57:26.600Z,100203.16
2019-04-21T10:59:58.181Z,100210.67
2019-04-21T11:02:36.866Z,100202.35
2019-04-21T11:05:06.971Z,100193.15
2019-04-21T11:08:02.484Z,100199.45
2019-04-21T11:10:22.177Z,100199.97
2019-04-21T11:12:52.651Z,100194.64
2019-04-21T11:15:23.337Z,100189.59
2019-04-21T11:17:54.503Z,100193.52
2019-04-21T11:20:24.748Z,100188.92
2019-04-21T11:22:55.517Z,100189.10
2019-04-21T11:25:26.259Z,100187.28
2019-04-21T11:27:56.151Z,100185.59
2019-04-21T11:30:25.770Z,100180.42
2019-04-21T11:32:55.367Z,100173.25
2019-04-21T11:35:25.506Z,100174.76
2019-04-21T11:38:06.183Z,100176.56
2019-04-21T11:40:27.707Z,100170.40
2019-04-21T11:42:57.708Z,100170.92
2019-04-21T11:45:30.912Z,100170.22
2019-04-21T11:48:06.499Z,100168.61
2019-04-21T11:50:37.104Z,100164.00
2019-04-21T11:53:07.081Z,100165.97
2019-04-21T11:55:41.695Z,100153.63
2019-04-21T11:58:09.957Z,100153.86
2019-04-21T12:00:39.894Z,100145.55
2019-04-21T12:03:12.023Z,100144.83
2019-04-21T12:05:41.453Z,100146.81
2019-04-21T12:08:23.134Z,100140.31
2019-04-21T12:10:43.145Z,100137.29
2019-04-21T12:13:14.067Z,100138.23
2019-04-21T12:15:45.068Z,100135.31
2019-04-21T12:18:15.544Z,100131.44
2019-04-21T12:20:45.213Z,100127.48
2019-04-21T12:23:14.650Z,100128.19
2019-04-21T12:25:47.251Z,100119.92
2019-04-21T12:28:17.405Z,100107.56
2019-04-21T12:30:49.672Z,100112.78
2019-04-21T12:33:29.867Z,100109.48
2019-04-21T12:35:59.976Z,100106.20
2019-04-21T12:38:38.762Z,100098.09
2019-04-21T12:41:00.683Z,100095.66
2019-04-21T12:43:30.681Z,100089.56
2019-04-21T12:46:00.151Z,100093.70
2019-04-21T12:48:29.846Z,100090.28
2019-04-21T12:50:59.821Z,100082.97
2019-04-21T12:53:29.798Z,100079.66
2019-04-21T12:56:00.028Z,100074.34
2019-04-21T12:58:31.040Z,100073.30
2019-04-21T13:01:00.908Z,100067.63
2019-04-21T13:03:32.052Z,100065.58
2019-04-21T13:06:01.803Z,100068.42
2019-04-21T13:08:43.599Z,100065.89
2019-04-21T13:11:02.584Z,100058.55
2019-04-21T13:13:32.227Z,100053.85
2019-04-21T13:16:02.970Z,100051.19
2019-04-21T13:18:33.237Z,100048.30
2019-04-21T13:21:04.257Z,100046.22
2019-04-21T13:23:34.899Z,100037.34
2019-04-21T13:26:06.129Z,100038.46
2019-04-21T13:28:35.915Z,100035.79
2019-04-21T13:31:06.495Z,100035.05
2019-04-21T13:33:36.133Z,100037.09
2019-04-21T13:36:05.636Z,100019.70
2019-04-21T13:38:42.667Z,100022.38
2019-04-21T13:41:27.323Z,100027.85
2019-04-21T13:43:43.296Z,100025.30
2019-04-21T13:46:12.945Z,100018.96
2019-04-21T13:48:42.633Z,100015.34
2019-04-21T13:51:13.409Z,100012.52
2019-04-21T13:53:43.901Z,100017.73
2019-04-21T13:56:14.322Z,100008.45
2019-04-21T13:58:44.301Z,100014.66
2019-04-21T14:01:13.973Z,100013.42
2019-04-21T14:03:44.074Z,100010.28
2019-04-21T14:06:14.153Z,100010.52
2019-04-21T14:08:46.629Z,100004.08
2019-04-21T14:11:17.544Z,100001.05
2019-04-21T14:13:48.261Z,99997.02
2019-04-21T14:16:18.219Z,99997.02
2019-04-21T14:18:47.880Z,99991.89
2019-04-21T14:21:17.316Z,99990.91
2019-04-21T14:23:49.296Z,99992.73
2019-04-21T14:26:18.380Z,99988.28
2019-04-21T14:28:49.177Z,99986.80
2019-04-21T14:31:20.006Z,99987.78
2019-04-21T14:33:50.022Z,99978.27
2019-04-21T14:36:21.005Z,99980.23
2019-04-21T14:38:52.338Z,99976.62
2019-04-21T14:41:24.115Z,99973.09
2019-04-21T14:43:55.049Z,99978.58
2019-04-21T14:46:47.035Z,99970.42
2019-04-21T14:49:21.653Z,99977.74
2019-04-21T14:52:08.686Z,99968.66
2019-04-21T14:54:58.658Z,99972.45
2019-04-21T14:57:29.489Z,99967.22
2019-04-21T15:00:00.605Z,99970.20
2019-04-21T15:02:31.819Z,99960.45
2019-04-21T15:05:02.198Z,99955.58
2019-04-21T15:07:33.076Z,99954.11
2019-04-21T15:10:11.547Z,99954.11
2019-04-21T15:12:34.213Z,99955.72
2019-04-21T15:15:03.616Z,99950.23
2019-04-21T15:17:33.733Z,99948.41
2019-04-21T15:20:17.641Z,99945.57
2019-04-21T15:22:48.303Z,99944.59
2019-04-21T15:25:18.365Z,99939.75
2019-04-21T15:27:48.760Z,99938.73
2019-04-21T15:30:18.729Z,99940.08
2019-04-21T15:32:48.600Z,99943.87
2019-04-21T15:35:19.535Z,99941.19
2019-04-21T15:37:49.858Z,99939.52
2019-04-21T15:40:31.677Z,99933.80
2019-04-21T15:42:52.678Z,99933.55
2019-04-21T15:45:22.418Z,99930.77
2019-04-21T15:47:51.973Z,99933.33
2019-04-21T15:50:23.144Z,99934.08
2019-04-21T15:52:53.911Z,99931.66
2019-04-21T15:55:41.346Z,99932.61
2019-04-21T15:58:30.434Z,99928.34
2019-04-21T16:01:10.310Z,99932.37
2019-04-21T16:03:40.677Z,99922.77
2019-04-21T16:06:11.616Z,99922.77
2019-04-21T16:08:41.113Z,99931.30
2019-04-21T16:11:11.369Z,99929.34
2019-04-21T16:13:41.692Z,99922.78
2019-04-21T16:16:12.600Z,99922.52
2019-04-21T16:18:42.642Z,99920.69
2019-04-21T16:21:13.717Z,99913.48
2019-04-21T16:23:46.636Z,99920.80
2019-04-21T16:26:17.038Z,99920.80
2019-04-21T16:28:49.192Z,99913.74
2019-04-21T16:31:20.314Z,99921.86
2019-04-21T16:33:52.697Z,99918.59
2019-04-21T16:36:23.313Z,99914.58
2019-04-21T16:38:53.599Z,99915.41
2019-04-21T16:41:24.414Z,99911.52
2019-04-21T16:43:55.488Z,99914.66
2019-04-21T16:46:25.565Z,99914.14
2019-04-21T16:48:55.907Z,99905.73
2019-04-21T16:51:26.419Z,99906.80
2019-04-21T16:54:03.961Z,99906.80
2019-04-21T16:56:39.525Z,99910.03
2019-04-21T16:59:29.005Z,99911.53
2019-04-21T17:01:58.773Z,99913.06
2019-04-21T17:04:28.734Z,99920.41
2019-04-21T17:06:58.937Z,99914.11
2019-04-21T17:09:28.618Z,99914.64
2019-04-21T17:12:02.311Z,99916.44
2019-04-21T17:14:48.131Z,99919.13
2019-04-21T17:17:25.641Z,99919.20
2019-04-21T17:19:38.150Z,99926.96
2019-04-21T17:22:03.957Z,99932.66
2019-04-21T17:24:34.754Z,99916.68
2019-04-21T17:27:05.072Z,99922.01
2019-04-21T17:29:34.694Z,99919.70
2019-04-21T17:32:07.417Z,99916.26
2019-04-21T17:34:37.096Z,99923.64
2019-04-21T17:37:06.889Z,99925.95
2019-04-21T17:39:36.676Z,99934.28
2019-04-21T17:42:18.644Z,99935.73
2019-04-21T17:44:37.435Z,99933.67
2019-04-21T17:47:21.205Z,99930.18
2019-04-21T17:49:39.258Z,99932.58
2019-04-21T17:52:19.779Z,99934.77
2019-04-21T17:54:54.760Z,99935.56
2019-04-21T17:57:43.886Z,99931.89
2019-04-21T18:00:13.990Z,99935.02
2019-04-21T18:02:51.801Z,99939.61
2019-04-21T18:05:26.007Z,99940.94
2019-04-21T18:07:47.807Z,99950.06
2019-04-21T18:10:19.304Z,99946.34
2019-04-21T18:12:45.094Z,99951.58
2019-04-21T18:15:18.192Z,99946.06
2019-04-21T18:17:34.276Z,99948.73
2019-04-21T18:20:04.107Z,99948.02
2019-04-21T18:22:53.514Z,99953.31
2019-04-21T18:25:38.474Z,99957.00
2019-04-21T18:27:56.675Z,99954.15
2019-04-21T18:30:52.072Z,99958.88
2019-04-21T18:33:29.955Z,99960.39
2019-04-21T18:36:14.413Z,99962.70
2019-04-21T18:39:09.854Z,99965.13
2019-04-21T18:41:30.550Z,99962.72
2019-04-21T18:44:34.605Z,99962.86
2019-04-21T18:47:03.620Z,99964.23
2019-04-21T18:49:24.632Z,99969.52
2019-04-21T18:52:03.605Z,99975.63
2019-04-21T18:54:45.840Z,99973.73
2019-04-21T18:57:08.075Z,99973.97
2019-04-21T18:59:37.283Z,99970.75
2019-04-21T19:02:07.946Z,99974.16
2019-04-21T19:04:37.076Z,99973.11
2019-04-21T19:07:20.036Z,99972.53
2019-04-21T19:12:49.193Z,99974.73
2019-04-21T19:14:55.006Z,99974.77
2019-04-21T19:17:58.081Z,99978.70
2019-04-21T19:20:07.140Z,99980.27
2019-04-21T19:22:34.119Z,99983.27
2019-04-21T19:25:05.102Z,99983.27
2019-04-21T19:27:32.174Z,99980.44
2019-04-21T19:32:33.593Z,99988.30
2019-04-21T19:34:55.786Z,99981.94
2019-04-21T19:37:26.162Z,99981.05
2019-04-21T19:40:05.717Z,99989.17
2019-04-21T19:42:36.689Z,99988.03
2019-04-21T19:45:10.768Z,99990.31
2019-04-21T19:47:45.093Z,99989.46
2019-04-21T19:50:15.853Z,99990.95
2019-04-21T19:52:40.006Z,99987.84
2019-04-21T19:55:00.560Z,99989.25
2019-04-21T19:57:31.307Z,99994.02
2019-04-21T20:00:04.334Z,99991.36
2019-04-21T20:02:32.309Z,99994.02
2019-04-21T20:05:07.037Z,99997.73
2019-04-21T20:07:49.363Z,99997.98
2019-04-21T20:10:26.842Z,99994.09
2019-04-21T20:12:55.601Z,99994.95
2019-04-21T20:15:37.346Z,99993.93
2019-04-21T20:17:55.893Z,99992.52
2019-04-21T20:20:13.283Z,99997.05
2019-04-21T20:22:46.798Z,99997.05
2019-04-21T20:25:18.108Z,99994.70
2019-04-21T20:27:58.272Z,100000.24
2019-04-21T20:30:41.420Z,100012.75
2019-04-21T20:33:20.250Z,100009.50
2019-04-21T20:35:46.819Z,100012.76
2019-04-21T20:38:06.226Z,100017.66
2019-04-21T20:40:36.320Z,100016.59
2019-04-21T20:43:19.294Z,100014.41
2019-04-21T20:45:49.438Z,100009.96
2019-04-21T20:48:07.225Z,100008.55
2019-04-21T20:50:41.957Z,100009.25
2019-04-21T20:53:14.661Z,100007.33
2019-04-21T20:55:47.216Z,100003.73
2019-04-21T20:58:15.494Z,100005.19
2019-04-21T21:01:06.344Z,100000.59
2019-04-21T21:03:24.621Z,100005.70
2019-04-21T21:05:49.698Z,100001.11
2019-04-21T21:08:32.665Z,100003.91
2019-04-21T21:10:53.317Z,99997.19
2019-04-21T21:13:32.222Z,99999.30
2019-04-21T21:16:10.526Z,99998.67
2019-04-21T21:18:52.013Z,100009.98
2019-04-21T21:21:08.914Z,100006.52
2019-04-21T21:23:40.189Z,100009.31
2019-04-21T21:26:12.322Z,100011.09
2019-04-21T21:28:32.582Z,100011.98
2019-04-21T21:31:07.351Z,100011.00
2019-04-21T21:33:49.024Z,100015.52
2019-04-21T21:36:10.711Z,100013.61
2019-04-21T21:38:42.994Z,100019.75
2019-04-21T21:41:05.189Z,100024.00
2019-04-21T21:43:27.534Z,100018.42
2019-04-21T21:45:59.884Z,100026.71
2019-04-21T21:48:40.479Z,100025.65
2019-04-21T21:51:05.966Z,100024.80
2019-04-21T21:53:34.116Z,100024.87
2019-04-21T21:56:02.733Z,100023.40
2019-04-21T21:58:38.162Z,100024.87
2019-04-21T22:01:06.198Z,100017.09
2019-04-21T22:03:40.905Z,100019.52
2019-04-21T22:06:10.795Z,100021.70
2019-04-21T22:08:38.610Z,100030.24
2019-04-21T22:11:08.943Z,100028.91
2019-04-21T22:13:47.518Z,100032.52
2019-04-21T22:16:14.011Z,100036.52
2019-04-21T22:19:04.727Z,100026.56
2019-04-21T22:21:34.659Z,100031.64
2019-04-21T22:23:54.879Z,100036.41
2019-04-21T22:26:15.481Z,100036.07
2019-04-21T22:28:45.596Z,100038.23
2019-04-21T22:31:21.193Z,100036.84
2019-04-21T22:33:50.312Z,100027.98
2019-04-21T22:36:32.973Z,100030.59
2019-04-21T22:39:11.837Z,100032.47
2019-04-21T22:41:30.326Z,100028.87
2019-04-21T22:43:55.224Z,100021.31
2019-04-21T22:46:24.412Z,100021.80
2019-04-21T22:48:59.762Z,100021.34
2019-04-21T22:51:35.444Z,100030.66
2019-04-21T22:53:59.436Z,100025.30
2019-04-21T22:56:32.059Z,100028.09
2019-04-21T22:58:58.986Z,100024.32
2019-04-21T23:01:34.985Z,100024.88
2019-04-21T23:04:02.788Z,100019.73
2019-04-21T23:06:34.371Z,100016.57
2019-04-21T23:09:02.249Z,100016.56
2019-04-21T23:11:37.506Z,100013.39
2019-04-21T23:14:06.624Z,100007.91
2019-04-21T23:16:37.820Z,100002.48
2019-04-21T23:19:21.222Z,99995.25
2019-04-21T23:21:58.061Z,100002.85
2019-04-21T23:24:31.786Z,100008.62
2019-04-21T23:26:51.365Z,100002.52
2019-04-21T23:29:39.555Z,100002.70
2019-04-21T23:31:59.246Z,100010.94
2019-04-21T23:34:19.580Z,100008.11
2019-04-21T23:36:53.090Z,100012.31
2019-04-21T23:39:22.762Z,100014.73
2019-04-21T23:41:51.063Z,100010.05
2019-04-21T23:44:20.304Z,100006.62
2019-04-21T23:46:54.718Z,100008.39
2019-04-21T23:49:34.337Z,100010.23
2019-04-21T23:51:59.344Z,100018.48
2019-04-21T23:54:23.142Z,100021.73
2019-04-21T23:56:53.880Z,100017.61
2019-04-21T23:59:24.821Z,100012.75
